createdAt,value
2023-01-08T00:00:18.953Z,3.15
2023-01-08T00:02:45.768Z,3.08
2023-01-08T00:05:12.540Z,2.83
2023-01-08T00:07:40.625Z,2.67
2023-01-08T00:10:09.959Z,2.70
2023-01-08T00:12:39.747Z,3.25
2023-01-08T00:15:07.736Z,3.10
2023-01-08T00:17:34.693Z,2.80
2023-01-08T00:20:05.475Z,3.13
2023-01-08T00:22:32.225Z,2.72
2023-01-08T00:25:01.168Z,3.22
2023-01-08T00:27:27.927Z,3.17
2023-01-08T00:29:55.806Z,3.15
2023-01-08T00:32:22.559Z,3.13
2023-01-08T00:34:49.372Z,3.03
2023-01-08T00:37:16.501Z,3.30
2023-01-08T00:39:43.300Z,2.88
2023-01-08T00:42:12.169Z,2.70
2023-01-08T00:44:38.981Z,3.15
2023-01-08T00:47:05.848Z,2.65
2023-01-08T00:49:32.608Z,2.92
2023-01-08T00:51:59.418Z,2.90
2023-01-08T00:54:26.295Z,3.28
2023-01-08T00:56:55.924Z,2.90
2023-01-08T00:59:24.254Z,2.60
2023-01-08T01:01:51.403Z,3.08
2023-01-08T01:04:18.467Z,2.90
2023-01-08T01:06:45.388Z,2.75
2023-01-08T01:09:12.466Z,2.58
2023-01-08T01:11:40.645Z,2.67
2023-01-08T01:14:07.559Z,2.63
2023-01-08T01:16:35.746Z,2.50
2023-01-08T01:19:02.677Z,2.97
2023-01-08T01:21:31.448Z,2.60
2023-01-08T01:24:00.226Z,2.90
2023-01-08T01:26:27.749Z,2.80
2023-01-08T01:28:57.064Z,3.25
2023-01-08T01:31:24.656Z,2.55
2023-01-08T01:33:53.060Z,2.70
2023-01-08T01:36:23.559Z,3.03
2023-01-08T01:38:52.330Z,2.53
2023-01-08T01:41:24.971Z,2.53
2023-01-08T01:43:52.909Z,2.85
2023-01-08T01:46:26.673Z,2.85
2023-01-08T01:49:00.125Z,2.42
2023-01-08T01:51:31.744Z,3.05
2023-01-08T01:53:59.418Z,2.28
2023-01-08T01:56:27.086Z,2.97
2023-01-08T01:58:54.116Z,3.08
2023-01-08T02:01:22.156Z,2.90
2023-01-08T02:03:49.039Z,2.92
2023-01-08T02:06:24.925Z,2.88
2023-01-08T02:09:00.533Z,2.33
2023-01-08T02:11:39.324Z,3.03
2023-01-08T02:14:11.748Z,2.58
2023-01-08T02:16:46.845Z,2.63
2023-01-08T02:19:30.514Z,2.60
2023-01-08T02:22:05.946Z,2.15
2023-01-08T02:24:46.665Z,2.58
2023-01-08T02:27:17.061Z,2.35
2023-01-08T02:29:44.528Z,2.50
2023-01-08T02:32:11.807Z,2.70
2023-01-08T02:34:38.589Z,2.45
2023-01-08T02:37:05.853Z,2.40
2023-01-08T02:39:57.896Z,2.15
2023-01-08T02:42:35.484Z,2.47
2023-01-08T02:45:10.051Z,1.77
2023-01-08T02:47:42.005Z,2.30
2023-01-08T02:50:15.582Z,1.88
2023-01-08T02:52:50.280Z,2.20
2023-01-08T02:55:18.602Z,2.20
2023-01-08T02:57:47.478Z,1.70
2023-01-08T03:00:16.577Z,3.08
2023-01-08T03:02:46.491Z,2.63
2023-01-08T03:05:21.198Z,1.90
2023-01-08T03:07:48.584Z,1.70
2023-01-08T03:10:15.637Z,2.47
2023-01-08T03:12:53.734Z,2.38
2023-01-08T03:15:26.547Z,1.73
2023-01-08T03:17:57.734Z,2.00
2023-01-08T03:20:25.218Z,2.38
2023-01-08T03:22:55.347Z,1.92
2023-01-08T03:25:24.446Z,1.85
2023-01-08T03:27:55.931Z,2.03
2023-01-08T03:30:24.821Z,2.03
2023-01-08T03:32:54.109Z,2.05
2023-01-08T03:35:23.484Z,2.20
2023-01-08T03:37:55.039Z,1.73
2023-01-08T03:40:25.232Z,1.55
2023-01-08T03:42:53.425Z,1.90
2023-01-08T03:45:22.819Z,2.55
2023-01-08T03:47:52.421Z,2.00
2023-01-08T03:50:23.178Z,2.28
2023-01-08T03:52:49.967Z,2.03
2023-01-08T03:55:16.982Z,2.53
2023-01-08T03:57:43.949Z,2.22
2023-01-08T04:00:14.187Z,2.30
2023-01-08T04:02:41.027Z,2.45
2023-01-08T04:05:08.801Z,2.42
2023-01-08T04:07:35.591Z,2.05
2023-01-08T04:10:02.487Z,1.92
2023-01-08T04:12:29.262Z,1.95
2023-01-08T04:14:57.494Z,1.85
2023-01-08T04:17:25.947Z,2.20
2023-01-08T04:19:52.882Z,1.80
2023-01-08T04:22:19.647Z,1.90
2023-01-08T04:24:46.590Z,2.78
2023-01-08T04:27:13.422Z,2.40
2023-01-08T04:29:40.233Z,2.50
2023-01-08T04:32:07.064Z,2.25
2023-01-08T04:34:35.186Z,2.35
2023-01-08T04:37:02.281Z,2.13
2023-01-08T04:39:29.044Z,1.90
2023-01-08T04:41:58.162Z,1.70
2023-01-08T04:44:25.051Z,2.03
2023-01-08T04:46:52.239Z,1.88
2023-01-08T04:49:19.089Z,1.85
2023-01-08T04:51:48.408Z,2.20
2023-01-08T04:54:15.640Z,1.88
2023-01-08T04:56:42.517Z,2.15
2023-01-08T04:59:09.387Z,2.08
2023-01-08T05:01:36.386Z,1.90
2023-01-08T05:04:04.758Z,2.00
2023-01-08T05:06:33.023Z,2.13
2023-01-08T05:09:01.278Z,2.33
2023-01-08T05:11:28.008Z,2.38
2023-01-08T05:13:55.001Z,1.88
2023-01-08T05:16:22.012Z,2.08
2023-01-08T05:18:49.048Z,2.22
2023-01-08T05:21:15.941Z,2.28
2023-01-08T05:23:46.451Z,2.67
2023-01-08T05:26:16.737Z,2.13
2023-01-08T05:28:43.663Z,2.42
2023-01-08T05:31:11.020Z,1.83
2023-01-08T05:33:38.332Z,2.60
2023-01-08T05:36:06.723Z,1.92
2023-01-08T05:38:33.490Z,2.15
2023-01-08T05:41:00.514Z,1.90
2023-01-08T05:43:29.868Z,2.38
2023-01-08T05:45:58.485Z,2.22
2023-01-08T05:48:25.387Z,1.77
2023-01-08T05:50:52.166Z,2.00
2023-01-08T05:53:19.323Z,2.10
2023-01-08T05:55:46.097Z,2.08
2023-01-08T05:58:12.771Z,2.05
2023-01-08T06:00:41.139Z,1.42
2023-01-08T06:03:08.316Z,1.50
2023-01-08T06:05:35.218Z,2.05
2023-01-08T06:08:02.116Z,1.60
2023-01-08T06:10:29.339Z,1.60
2023-01-08T06:12:56.623Z,1.60
2023-01-08T06:15:23.482Z,1.50
2023-01-08T06:17:51.693Z,1.40
2023-01-08T06:20:18.512Z,1.38
2023-01-08T06:22:45.155Z,1.38
2023-01-08T06:25:12.005Z,1.48
2023-01-08T06:27:40.563Z,1.60
2023-01-08T06:30:08.684Z,1.25
2023-01-08T06:32:35.395Z,1.58
2023-01-08T06:35:04.242Z,1.50
2023-01-08T06:37:33.687Z,1.95
2023-01-08T06:40:00.628Z,1.70
2023-01-08T06:42:27.365Z,1.77
2023-01-08T06:44:54.512Z,1.73
2023-01-08T06:47:21.539Z,1.90
2023-01-08T06:49:48.259Z,1.90
2023-01-08T06:52:16.462Z,2.38
2023-01-08T06:54:43.217Z,1.98
2023-01-08T06:57:09.926Z,2.70
2023-01-08T06:59:36.901Z,1.90
2023-01-08T07:02:04.018Z,2.53
2023-01-08T07:04:30.799Z,2.53
2023-01-08T07:06:57.484Z,2.22
2023-01-08T07:09:25.656Z,2.70
2023-01-08T07:11:52.419Z,2.88
2023-01-08T07:14:19.236Z,3.38
2023-01-08T07:16:46.120Z,2.78
2023-01-08T07:19:14.026Z,3.30
2023-01-08T07:21:41.234Z,3.70
2023-01-08T07:24:08.994Z,3.83
2023-01-08T07:26:37.576Z,3.50
2023-01-08T07:29:04.329Z,3.20
2023-01-08T07:31:31.444Z,3.50
2023-01-08T07:33:58.227Z,4.00
2023-01-08T07:36:24.940Z,3.47
2023-01-08T07:38:52.122Z,3.58
2023-01-08T07:41:18.827Z,3.30
2023-01-08T07:43:48.921Z,3.67
2023-01-08T07:46:16.461Z,3.40
2023-01-08T07:48:43.487Z,3.70
2023-01-08T07:51:11.323Z,3.60
2023-01-08T07:53:38.265Z,3.33
2023-01-08T07:56:07.297Z,3.55
2023-01-08T07:58:35.101Z,4.03
2023-01-08T08:01:04.076Z,3.20
2023-01-08T08:03:30.738Z,3.50
2023-01-08T08:05:59.992Z,3.45
2023-01-08T08:08:28.184Z,2.95
2023-01-08T08:10:55.089Z,2.85
2023-01-08T08:13:21.865Z,2.80
2023-01-08T08:15:48.702Z,2.30
2023-01-08T08:18:17.000Z,3.00
2023-01-08T08:20:43.945Z,2.42
2023-01-08T08:23:12.573Z,3.08
2023-01-08T08:25:40.254Z,2.08
2023-01-08T08:28:07.768Z,2.30
2023-01-08T08:30:35.657Z,2.60
2023-01-08T08:33:03.986Z,2.05
2023-01-08T08:35:33.725Z,2.45
2023-01-08T08:38:00.665Z,2.15
2023-01-08T08:40:28.128Z,2.17
2023-01-08T08:42:58.997Z,2.10
2023-01-08T08:45:26.502Z,2.72
2023-01-08T08:47:53.212Z,2.40
2023-01-08T08:50:20.160Z,2.38
2023-01-08T08:52:48.376Z,2.00
2023-01-08T08:55:16.798Z,2.17
2023-01-08T08:57:44.298Z,2.80
2023-01-08T09:00:12.469Z,2.10
2023-01-08T09:02:39.501Z,2.00
2023-01-08T09:05:06.951Z,2.20
2023-01-08T09:07:33.897Z,3.15
2023-01-08T09:10:04.082Z,1.98
2023-01-08T09:12:30.906Z,2.25
2023-01-08T09:14:57.732Z,2.33
2023-01-08T09:17:24.559Z,3.08
2023-01-08T09:19:51.293Z,2.15
2023-01-08T09:22:18.305Z,2.38
2023-01-08T09:24:45.288Z,2.55
2023-01-08T09:27:15.837Z,2.00
2023-01-08T09:29:42.808Z,2.13
2023-01-08T09:32:09.879Z,2.40
2023-01-08T09:34:36.973Z,1.90
2023-01-08T09:37:04.398Z,1.98
2023-01-08T09:39:31.368Z,2.83
2023-01-08T09:42:01.090Z,1.60
2023-01-08T09:44:35.932Z,2.17
2023-01-08T09:47:03.249Z,1.58
2023-01-08T09:49:37.603Z,2.10
2023-01-08T09:52:04.567Z,1.98
2023-01-08T09:54:31.845Z,1.58
2023-01-08T09:57:02.923Z,1.90
2023-01-08T09:59:31.696Z,2.22
2023-01-08T10:01:58.959Z,1.90
2023-01-08T10:04:26.727Z,1.92
2023-01-08T10:06:56.277Z,1.90
2023-01-08T10:09:26.682Z,1.55
2023-01-08T10:11:55.699Z,1.60
2023-01-08T10:14:25.097Z,1.63
2023-01-08T10:16:58.592Z,1.70
2023-01-08T10:19:25.369Z,2.10
2023-01-08T10:21:53.208Z,2.13
2023-01-08T10:24:31.535Z,1.77
2023-01-08T10:27:06.822Z,1.90
2023-01-08T10:29:33.674Z,1.98
2023-01-08T10:32:09.594Z,2.00
2023-01-08T10:34:44.281Z,2.05
2023-01-08T10:37:16.547Z,1.27
2023-01-08T10:39:46.754Z,2.05
2023-01-08T10:42:17.319Z,1.90
2023-01-08T10:44:57.153Z,2.20
2023-01-08T10:47:27.376Z,2.78
2023-01-08T10:49:54.591Z,1.63
2023-01-08T10:52:27.239Z,1.60
2023-01-08T10:54:54.598Z,1.65
2023-01-08T10:57:24.486Z,2.30
2023-01-08T10:59:51.627Z,1.90
2023-01-08T11:02:29.641Z,1.80
2023-01-08T11:04:59.431Z,2.22
2023-01-08T11:07:26.774Z,2.10
2023-01-08T11:09:54.683Z,2.22
2023-01-08T11:12:36.946Z,1.67
2023-01-08T11:15:05.725Z,1.65
2023-01-08T11:17:33.641Z,2.35
2023-01-08T11:20:18.742Z,2.13
2023-01-08T11:22:45.595Z,1.85
2023-01-08T11:25:14.446Z,4.45
2023-01-08T11:27:44.697Z,3.70
2023-01-08T11:30:14.468Z,3.03
2023-01-08T11:32:46.519Z,2.60
2023-01-08T11:35:19.974Z,2.65
2023-01-08T11:37:51.966Z,2.22
2023-01-08T11:40:26.381Z,2.28
2023-01-08T11:43:11.691Z,2.05
2023-01-08T11:45:51.740Z,2.40
2023-01-08T11:48:31.956Z,2.20
2023-01-08T11:51:27.291Z,2.25
2023-01-08T11:54:00.861Z,2.28
2023-01-08T11:56:46.974Z,2.85
2023-01-08T11:59:24.199Z,2.58
2023-01-08T12:02:00.650Z,2.22
2023-01-08T12:04:54.375Z,3.30
2023-01-08T12:07:31.108Z,2.60
2023-01-08T12:10:04.551Z,3.25
2023-01-08T12:12:44.015Z,3.30
2023-01-08T12:15:18.482Z,2.75
2023-01-08T12:18:00.582Z,2.15
2023-01-08T12:20:37.532Z,2.08
2023-01-08T12:23:15.107Z,2.58
2023-01-08T12:26:06.502Z,2.95
2023-01-08T12:29:21.141Z,2.85
2023-01-08T12:32:25.950Z,3.08
2023-01-08T12:34:58.064Z,2.90
2023-01-08T12:37:33.207Z,2.38
2023-01-08T12:40:11.976Z,2.97
2023-01-08T12:42:47.237Z,2.65
2023-01-08T12:45:26.205Z,2.33
2023-01-08T12:47:59.254Z,2.75
2023-01-08T12:50:45.033Z,2.40
2023-01-08T12:53:21.845Z,2.50
2023-01-08T12:55:58.672Z,2.38
2023-01-08T12:58:33.732Z,2.45
2023-01-08T13:01:12.015Z,2.38
2023-01-08T13:03:40.360Z,2.60
2023-01-08T13:06:30.009Z,2.33
2023-01-08T13:09:01.171Z,2.60
2023-01-08T13:14:02.128Z,2.45
2023-01-08T13:16:46.156Z,2.40
2023-01-08T13:19:25.274Z,2.38
2023-01-08T13:21:56.892Z,1.70
2023-01-08T13:24:57.877Z,2.70
2023-01-08T13:27:32.326Z,1.98
2023-01-08T13:29:59.316Z,2.35
2023-01-08T13:32:37.924Z,2.20
2023-01-08T13:35:23.486Z,2.25
2023-01-08T13:37:51.852Z,2.22
2023-01-08T13:40:54.887Z,2.13
2023-01-08T13:43:27.090Z,1.90
2023-01-08T13:46:08.923Z,2.40
2023-01-08T13:48:38.845Z,1.83
2023-01-08T13:51:06.479Z,2.30
2023-01-08T13:53:34.114Z,2.05
2023-01-08T13:56:06.407Z,2.03
2023-01-08T13:58:45.011Z,2.47
2023-01-08T14:01:12.799Z,2.08
2023-01-08T14:03:46.219Z,1.75
2023-01-08T14:06:17.647Z,2.30
2023-01-08T14:11:18.549Z,1.60
2023-01-08T14:13:47.386Z,1.75
2023-01-08T14:16:15.853Z,1.60
2023-01-08T14:18:43.937Z,2.08
2023-01-08T14:21:11.471Z,2.00
2023-01-08T14:23:42.060Z,1.50
2023-01-08T14:26:16.359Z,1.67
2023-01-08T14:28:52.913Z,1.73
2023-01-08T14:31:21.675Z,1.90
2023-01-08T14:33:49.341Z,1.50
2023-01-08T14:36:17.309Z,1.73
2023-01-08T14:38:44.128Z,1.40
2023-01-08T14:41:14.118Z,1.95
2023-01-08T14:50:50.068Z,2.00
2023-01-08T14:53:25.845Z,1.45
2023-01-08T14:55:55.894Z,1.60
2023-01-08T14:58:25.048Z,1.40
2023-01-08T15:00:54.868Z,1.70
2023-01-08T15:03:33.757Z,1.42
2023-01-08T15:06:02.688Z,1.48
2023-01-08T15:08:35.775Z,1.60
2023-01-08T15:11:06.675Z,1.73
2023-01-08T15:13:37.516Z,1.63
2023-01-08T15:16:10.851Z,1.95
2023-01-08T15:18:43.895Z,1.40
2023-01-08T15:21:17.404Z,1.40
2023-01-08T15:23:55.763Z,1.80
2023-01-08T15:26:23.567Z,1.45
2023-01-08T15:28:56.246Z,1.52
2023-01-08T15:31:25.054Z,2.05
2023-01-08T15:33:51.980Z,2.25
2023-01-08T15:36:20.556Z,1.80
2023-01-08T15:38:47.381Z,1.80
2023-01-08T15:41:18.378Z,2.25
2023-01-08T15:43:45.070Z,2.05
2023-01-08T15:46:11.958Z,2.00
2023-01-08T15:48:38.886Z,1.45
2023-01-08T15:51:07.377Z,1.85
2023-01-08T15:53:43.587Z,1.40
2023-01-08T15:56:10.585Z,2.10
2023-01-08T15:58:37.385Z,2.45
2023-01-08T16:01:04.513Z,2.80
2023-01-08T16:03:33.190Z,2.55
2023-01-08T16:06:00.272Z,2.70
2023-01-08T16:08:27.145Z,2.20
2023-01-08T16:10:56.243Z,1.52
2023-01-08T16:13:23.273Z,1.75
2023-01-08T16:15:50.127Z,1.83
2023-01-08T16:18:18.250Z,1.40
2023-01-08T16:20:45.115Z,1.75
2023-01-08T16:23:17.873Z,1.52
2023-01-08T16:25:44.940Z,1.35
2023-01-08T16:28:13.297Z,1.40
2023-01-08T16:30:41.690Z,1.83
2023-01-08T16:33:10.398Z,1.83
2023-01-08T16:35:38.859Z,2.20
2023-01-08T16:38:05.607Z,2.13
2023-01-08T16:40:32.587Z,2.15
2023-01-08T16:43:01.437Z,2.50
2023-01-08T16:45:29.999Z,2.55
2023-01-08T16:47:56.890Z,2.00
2023-01-08T16:50:23.907Z,1.40
2023-01-08T16:52:51.149Z,1.80
2023-01-08T16:55:25.568Z,1.75
2023-01-08T16:57:55.250Z,1.77
2023-01-08T17:00:26.176Z,2.10
2023-01-08T17:02:54.457Z,2.10
2023-01-08T17:05:26.396Z,1.85
2023-01-08T17:07:56.891Z,2.22
2023-01-08T17:10:25.802Z,1.70
2023-01-08T17:12:52.784Z,1.75
2023-01-08T17:15:19.969Z,2.35
2023-01-08T17:17:46.683Z,2.55
2023-01-08T17:20:15.294Z,2.40
2023-01-08T17:22:42.017Z,2.50
2023-01-08T17:25:09.583Z,1.73
2023-01-08T17:27:36.654Z,6.88
2023-01-08T17:30:04.222Z,2.17
2023-01-08T17:32:30.987Z,2.17
2023-01-08T17:34:57.756Z,2.00
2023-01-08T17:37:25.988Z,2.22
2023-01-08T17:39:52.729Z,2.22
2023-01-08T17:42:19.467Z,2.30
2023-01-08T17:44:47.342Z,2.20
2023-01-08T17:47:14.716Z,1.90
2023-01-08T17:49:41.468Z,1.95
2023-01-08T17:52:08.346Z,1.65
2023-01-08T17:54:36.916Z,1.70
2023-01-08T17:57:03.919Z,2.00
2023-01-08T17:59:30.618Z,2.13
2023-01-08T18:01:57.814Z,1.83
2023-01-08T18:04:24.677Z,2.00
2023-01-08T18:06:51.516Z,2.60
2023-01-08T18:09:18.154Z,2.28
2023-01-08T18:11:46.679Z,2.50
2023-01-08T18:14:14.390Z,1.70
2023-01-08T18:16:41.501Z,1.90
2023-01-08T18:19:23.406Z,2.38
2023-01-08T18:21:50.349Z,2.58
2023-01-08T18:24:24.180Z,2.25
2023-01-08T18:26:58.584Z,2.05
2023-01-08T18:30:06.103Z,2.03
2023-01-08T18:32:37.066Z,1.73
2023-01-08T18:35:08.150Z,1.95
2023-01-08T18:37:36.473Z,1.92
2023-01-08T18:40:15.442Z,1.80
2023-01-08T18:42:51.804Z,2.72
2023-01-08T18:45:18.714Z,2.00
2023-01-08T18:47:45.504Z,1.88
2023-01-08T18:50:12.424Z,2.38
2023-01-08T18:52:42.380Z,1.98
2023-01-08T18:55:09.596Z,1.33
2023-01-08T18:57:36.355Z,1.48
2023-01-08T19:00:06.489Z,2.40
2023-01-08T19:02:35.177Z,1.55
2023-01-08T19:05:02.097Z,1.80
2023-01-08T19:07:29.432Z,1.65
2023-01-08T19:09:56.479Z,1.65
2023-01-08T19:12:23.851Z,1.27
2023-01-08T19:14:50.884Z,1.95
2023-01-08T19:17:40.659Z,1.73
2023-01-08T19:20:08.853Z,2.00
2023-01-08T19:22:57.767Z,1.85
2023-01-08T19:25:26.756Z,2.15
2023-01-08T19:27:53.845Z,1.88
2023-01-08T19:30:21.005Z,2.28
2023-01-08T19:32:50.153Z,2.47
2023-01-08T19:35:17.168Z,1.92
2023-01-08T19:37:49.140Z,2.22
2023-01-08T19:40:22.050Z,2.78
2023-01-08T19:42:56.520Z,2.17
2023-01-08T19:45:23.332Z,2.63
2023-01-08T19:47:56.853Z,2.60
2023-01-08T19:50:23.766Z,2.78
2023-01-08T19:52:50.633Z,2.47
2023-01-08T19:55:17.615Z,2.15
2023-01-08T19:57:44.381Z,2.10
2023-01-08T20:00:12.371Z,1.73
2023-01-08T20:02:39.387Z,1.83
2023-01-08T20:05:08.521Z,2.28
2023-01-08T20:07:35.505Z,2.17
2023-01-08T20:10:02.496Z,2.03
2023-01-08T20:12:29.401Z,2.15
2023-01-08T20:14:56.195Z,1.95
2023-01-08T20:17:25.589Z,2.33
2023-01-08T20:19:53.023Z,2.33
2023-01-08T20:22:21.101Z,1.83
2023-01-08T20:24:48.226Z,2.78
2023-01-08T20:27:14.978Z,2.05
2023-01-08T20:29:47.692Z,1.85
2023-01-08T20:32:14.566Z,2.08
2023-01-08T20:34:42.852Z,1.98
2023-01-08T20:37:09.555Z,1.70
2023-01-08T20:39:38.543Z,1.65
2023-01-08T20:42:08.594Z,1.80
2023-01-08T20:44:35.720Z,1.52
2023-01-08T20:47:02.770Z,1.98
2023-01-08T20:49:29.613Z,1.60
2023-01-08T20:51:59.754Z,1.38
2023-01-08T20:54:28.463Z,1.35
2023-01-08T20:56:58.008Z,1.60
2023-01-08T20:59:27.844Z,1.20
2023-01-08T21:01:55.074Z,1.25
2023-01-08T21:04:21.948Z,2.47
2023-01-08T21:06:48.866Z,1.70
2023-01-08T21:09:15.877Z,1.60
2023-01-08T21:11:42.686Z,1.20
2023-01-08T21:14:11.611Z,1.65
2023-01-08T21:16:39.002Z,1.55
2023-01-08T21:19:06.252Z,1.42
2023-01-08T21:21:35.348Z,1.90
2023-01-08T21:24:03.857Z,1.75
2023-01-08T21:26:31.204Z,1.55
2023-01-08T21:28:58.100Z,1.63
2023-01-08T21:31:27.834Z,1.60
2023-01-08T21:33:57.041Z,1.60
2023-01-08T21:36:27.197Z,1.83
2023-01-08T21:38:55.745Z,1.52
2023-01-08T21:41:24.576Z,1.70
2023-01-08T21:43:51.401Z,1.40
2023-01-08T21:46:19.101Z,1.55
2023-01-08T21:48:47.570Z,1.67
2023-01-08T21:51:14.665Z,1.50
2023-01-08T21:53:41.714Z,1.40
2023-01-08T21:56:08.528Z,1.50
2023-01-08T21:58:35.870Z,1.23
2023-01-08T22:01:09.236Z,1.10
2023-01-08T22:03:36.067Z,1.50
2023-01-08T22:06:06.685Z,1.67
2023-01-08T22:08:34.638Z,1.20
2023-01-08T22:11:05.981Z,1.73
2023-01-08T22:16:05.603Z,1.60
2023-01-08T22:18:32.587Z,1.33
2023-01-08T22:21:00.176Z,1.13
2023-01-08T22:23:28.712Z,1.60
2023-01-08T22:25:55.637Z,1.40
2023-01-08T22:28:22.424Z,1.80
2023-01-08T22:30:49.974Z,2.13
2023-01-08T22:33:16.897Z,1.50
2023-01-08T22:35:46.402Z,1.30
2023-01-08T22:38:14.797Z,1.40
2023-01-08T22:40:42.983Z,1.60
2023-01-08T22:43:09.702Z,1.17
2023-01-08T22:45:36.617Z,1.42
2023-01-08T22:48:03.630Z,1.85
2023-01-08T22:50:31.689Z,1.33
2023-01-08T22:52:59.733Z,1.20
2023-01-08T22:55:26.522Z,1.60
2023-01-08T22:57:55.833Z,1.20
2023-01-08T23:00:22.630Z,1.45
2023-01-08T23:02:49.388Z,1.17
2023-01-08T23:05:17.615Z,1.75
2023-01-08T23:07:44.388Z,1.08
2023-01-08T23:10:12.010Z,1.30
2023-01-08T23:12:38.749Z,1.02
2023-01-08T23:15:08.937Z,1.10
2023-01-08T23:17:44.531Z,1.65
2023-01-08T23:20:19.029Z,1.50
2023-01-08T23:22:46.372Z,1.58
2023-01-08T23:25:13.318Z,1.55
2023-01-08T23:27:40.081Z,1.48
2023-01-08T23:30:10.951Z,1.25
2023-01-08T23:32:37.740Z,1.80
2023-01-08T23:35:05.445Z,1.63
2023-01-08T23:37:34.337Z,1.70
2023-01-08T23:40:01.128Z,1.85
2023-01-08T23:42:28.687Z,1.55
2023-01-08T23:44:55.443Z,1.50
2023-01-08T23:47:23.625Z,1.63
2023-01-08T23:49:50.626Z,1.70
2023-01-08T23:52:17.389Z,2.05
2023-01-08T23:54:44.129Z,1.60
2023-01-08T23:57:10.906Z,1.30
2023-01-08T23:59:37.688Z,1.63
